createdAt,value
2023-02-19T00:00:23.957Z,55.70
2023-02-19T00:02:54.459Z,52.10
2023-02-19T00:05:24.658Z,53.97
2023-02-19T00:07:54.237Z,52.78
2023-02-19T00:10:23.902Z,55.00
2023-02-19T00:12:54.199Z,53.67
2023-02-19T00:15:23.843Z,55.00
2023-02-19T00:17:53.562Z,54.15
2023-02-19T00:20:23.147Z,54.85
2023-02-19T00:22:52.897Z,55.50
2023-02-19T00:25:22.632Z,53.58
2023-02-19T00:27:52.292Z,57.65
2023-02-19T00:30:22.053Z,54.92
2023-02-19T00:32:54.912Z,54.90
2023-02-19T00:35:24.790Z,54.35
2023-02-19T00:37:54.379Z,53.83
2023-02-19T00:40:24.545Z,52.70
2023-02-19T00:42:54.808Z,51.72
2023-02-19T00:45:24.684Z,53.05
2023-02-19T00:47:55.217Z,54.33
2023-02-19T00:50:24.860Z,57.65
2023-02-19T00:52:54.589Z,54.13
2023-02-19T00:55:24.269Z,57.00
2023-02-19T00:57:53.832Z,59.90
2023-02-19T01:00:23.503Z,59.42
2023-02-19T01:02:53.190Z,57.95
2023-02-19T01:05:22.731Z,58.45
2023-02-19T01:07:53.025Z,57.05
2023-02-19T01:10:22.777Z,56.58
2023-02-19T01:12:52.407Z,61.05
2023-02-19T01:15:22.315Z,61.28
2023-02-19T01:17:52.082Z,64.95
2023-02-19T01:20:21.785Z,63.03
2023-02-19T01:22:51.479Z,65.38
2023-02-19T01:25:21.475Z,64.18
2023-02-19T01:27:51.135Z,64.15
2023-02-19T01:30:20.936Z,64.63
2023-02-19T01:32:50.627Z,63.35
2023-02-19T01:35:20.314Z,62.10
2023-02-19T01:37:49.911Z,61.13
2023-02-19T01:40:19.812Z,60.20
2023-02-19T01:42:49.491Z,57.67
2023-02-19T01:45:34.149Z,58.97
2023-02-19T01:48:14.294Z,55.05
2023-02-19T01:50:49.434Z,53.47
2023-02-19T01:53:24.494Z,55.88
2023-02-19T01:55:58.344Z,55.00
2023-02-19T01:58:31.147Z,54.78
2023-02-19T02:01:01.792Z,56.88
2023-02-19T02:03:31.921Z,59.63
2023-02-19T02:06:24.907Z,61.30
2023-02-19T02:09:18.314Z,58.80
2023-02-19T02:11:51.695Z,57.80
2023-02-19T02:14:26.345Z,53.45
2023-02-19T02:17:22.837Z,55.55
2023-02-19T02:20:31.661Z,55.13
2023-02-19T02:23:38.917Z,57.15
2023-02-19T02:26:27.877Z,54.28
2023-02-19T02:29:34.497Z,52.75
2023-02-19T02:32:14.222Z,53.47
2023-02-19T02:35:09.573Z,50.75
2023-02-19T02:37:44.321Z,49.72
2023-02-19T02:40:15.983Z,55.92
2023-02-19T02:42:45.903Z,55.15
2023-02-19T02:45:38.361Z,56.25
2023-02-19T02:48:33.532Z,54.20
2023-02-19T02:51:28.612Z,52.90
2023-02-19T02:54:44.992Z,52.28
2023-02-19T02:57:16.553Z,52.55
2023-02-19T02:59:50.746Z,55.60
2023-02-19T03:02:25.877Z,55.40
2023-02-19T03:05:31.489Z,51.80
2023-02-19T03:08:32.077Z,50.88
2023-02-19T03:11:32.113Z,52.10
2023-02-19T03:14:34.403Z,50.70
2023-02-19T03:17:33.847Z,47.38
2023-02-19T03:20:07.921Z,47.90
2023-02-19T03:22:40.072Z,47.60
2023-02-19T03:25:41.379Z,40.35
2023-02-19T03:28:13.579Z,36.33
2023-02-19T03:30:49.277Z,36.35
2023-02-19T03:33:24.522Z,38.20
2023-02-19T03:36:00.115Z,36.60
2023-02-19T03:38:41.582Z,35.35
2023-02-19T03:41:50.416Z,34.05
2023-02-19T03:44:46.518Z,32.33
2023-02-19T03:47:33.283Z,32.70
2023-02-19T03:50:25.871Z,29.95
2023-02-19T03:53:34.632Z,29.02
2023-02-19T03:56:16.108Z,27.70
2023-02-19T03:59:00.633Z,29.00
2023-02-19T04:01:41.398Z,29.77
2023-02-19T04:04:44.896Z,29.58
2023-02-19T04:07:15.282Z,31.33
2023-02-19T04:09:49.069Z,32.83
2023-02-19T04:12:21.100Z,29.15
2023-02-19T04:15:06.038Z,29.17
2023-02-19T04:18:00.487Z,28.67
2023-02-19T04:20:33.382Z,28.50
2023-02-19T04:23:03.146Z,27.13
2023-02-19T04:25:34.969Z,26.40
2023-02-19T04:28:05.264Z,26.85
2023-02-19T04:30:35.097Z,25.75
2023-02-19T04:33:04.877Z,26.30
2023-02-19T04:35:36.093Z,25.70
2023-02-19T04:38:05.793Z,25.92
2023-02-19T04:40:35.490Z,26.15
2023-02-19T04:43:05.290Z,26.08
2023-02-19T04:45:34.962Z,27.38
2023-02-19T04:48:04.772Z,25.83
2023-02-19T04:50:34.624Z,26.80
2023-02-19T04:53:04.213Z,27.73
2023-02-19T04:55:33.834Z,26.50
2023-02-19T04:58:03.632Z,27.05
2023-02-19T05:00:35.570Z,27.58
2023-02-19T05:03:05.202Z,27.55
2023-02-19T05:05:34.886Z,28.48
2023-02-19T05:08:04.502Z,26.27
2023-02-19T05:10:35.463Z,27.33
2023-02-19T05:13:05.766Z,26.98
2023-02-19T05:15:35.376Z,25.75
2023-02-19T05:18:05.626Z,28.30
2023-02-19T05:20:35.456Z,27.70
2023-02-19T05:23:05.085Z,27.45
2023-02-19T05:25:34.782Z,27.85
2023-02-19T05:28:19.317Z,26.55
2023-02-19T05:30:51.495Z,27.77
2023-02-19T05:33:22.932Z,26.67
2023-02-19T05:35:55.727Z,27.45
2023-02-19T05:38:26.381Z,27.20
2023-02-19T05:40:56.020Z,28.10
2023-02-19T05:43:25.740Z,27.83
2023-02-19T05:45:55.332Z,28.00
2023-02-19T05:48:24.880Z,27.65
2023-02-19T05:50:54.550Z,28.23
2023-02-19T05:53:24.133Z,27.55
2023-02-19T05:55:53.712Z,26.25
2023-02-19T05:58:23.508Z,27.63
2023-02-19T06:00:53.813Z,28.20
2023-02-19T06:03:24.219Z,26.48
2023-02-19T06:05:53.907Z,25.90
2023-02-19T06:08:23.544Z,28.15
2023-02-19T06:10:53.146Z,26.02
2023-02-19T06:13:23.474Z,28.77
2023-02-19T06:15:53.046Z,26.13
2023-02-19T06:18:22.661Z,27.52
2023-02-19T06:20:52.613Z,25.90
2023-02-19T06:23:22.142Z,26.90
2023-02-19T06:25:51.652Z,27.13
2023-02-19T06:28:21.338Z,29.42
2023-02-19T06:30:51.572Z,29.58
2023-02-19T06:33:21.261Z,27.00
2023-02-19T06:35:50.940Z,29.15
2023-02-19T06:38:20.554Z,30.38
2023-02-19T06:40:50.205Z,28.98
2023-02-19T06:43:19.880Z,28.67
2023-02-19T06:45:49.472Z,27.30
2023-02-19T06:48:19.114Z,28.15
2023-02-19T06:50:48.753Z,27.23
2023-02-19T06:53:18.409Z,27.02
2023-02-19T06:55:57.280Z,27.45
2023-02-19T06:58:26.871Z,25.80
2023-02-19T07:00:56.879Z,28.23
2023-02-19T07:03:28.072Z,27.17
2023-02-19T07:05:57.696Z,28.17
2023-02-19T07:08:29.319Z,26.05
2023-02-19T07:11:02.255Z,28.15
2023-02-19T07:13:32.472Z,27.30
2023-02-19T07:16:04.554Z,26.08
2023-02-19T07:18:34.557Z,26.92
2023-02-19T07:21:12.031Z,27.35
2023-02-19T07:23:42.843Z,27.90
2023-02-19T07:26:20.695Z,28.38
2023-02-19T07:31:23.259Z,26.48
2023-02-19T07:33:53.505Z,25.92
2023-02-19T07:36:25.234Z,26.25
2023-02-19T07:39:02.051Z,26.45
2023-02-19T07:41:31.700Z,26.63
2023-02-19T07:44:01.388Z,26.10
2023-02-19T07:46:32.371Z,25.15
2023-02-19T07:49:02.752Z,25.63
2023-02-19T07:51:32.417Z,24.63
2023-02-19T07:54:02.212Z,25.45
2023-02-19T07:56:32.059Z,25.38
2023-02-19T07:59:03.020Z,24.13
2023-02-19T08:01:52.334Z,25.17
2023-02-19T08:04:22.007Z,24.45
2023-02-19T08:06:51.852Z,21.88
2023-02-19T08:09:21.503Z,21.67
2023-02-19T08:12:10.840Z,21.63
2023-02-19T08:14:41.047Z,23.33
2023-02-19T08:17:10.689Z,22.75
2023-02-19T08:19:40.486Z,23.73
2023-02-19T08:22:10.372Z,24.08
2023-02-19T08:24:44.511Z,22.23
2023-02-19T08:27:14.106Z,20.15
2023-02-19T08:29:43.747Z,19.58
2023-02-19T08:32:13.538Z,20.63
2023-02-19T08:34:43.119Z,22.08
2023-02-19T08:37:12.717Z,20.25
2023-02-19T08:39:42.386Z,21.05
2023-02-19T08:42:12.070Z,19.20
2023-02-19T08:44:41.709Z,19.55
2023-02-19T08:47:11.380Z,19.95
2023-02-19T08:49:40.963Z,19.45
2023-02-19T08:52:10.721Z,19.45
2023-02-19T08:54:40.443Z,19.73
2023-02-19T08:57:10.011Z,19.35
2023-02-19T08:59:39.682Z,17.98
2023-02-19T09:02:10.991Z,18.25
2023-02-19T09:04:40.970Z,18.25
2023-02-19T09:07:12.780Z,17.85
2023-02-19T09:09:42.930Z,17.45
2023-02-19T09:12:14.415Z,17.15
2023-02-19T09:14:44.741Z,16.35
2023-02-19T09:17:14.627Z,17.30
2023-02-19T09:19:44.396Z,15.77
2023-02-19T09:22:14.385Z,16.30
2023-02-19T09:24:45.578Z,15.93
2023-02-19T09:27:20.198Z,15.07
2023-02-19T09:29:49.981Z,15.55
2023-02-19T09:32:19.684Z,15.65
2023-02-19T09:34:49.376Z,15.27
2023-02-19T09:37:18.997Z,15.80
2023-02-19T09:39:48.744Z,15.30
2023-02-19T09:42:22.545Z,16.15
2023-02-19T09:44:54.995Z,15.52
2023-02-19T09:47:30.588Z,17.30
2023-02-19T09:50:07.279Z,16.50
2023-02-19T09:52:47.337Z,13.82
2023-02-19T09:55:38.625Z,14.02
2023-02-19T09:58:31.791Z,15.77
2023-02-19T10:01:04.834Z,14.15
2023-02-19T10:03:45.007Z,14.77
2023-02-19T10:06:29.031Z,15.43
2023-02-19T10:09:28.815Z,13.30
2023-02-19T10:12:00.675Z,13.32
2023-02-19T10:14:41.991Z,14.32
2023-02-19T10:17:25.231Z,14.63
2023-02-19T10:19:55.886Z,14.18
2023-02-19T10:22:26.438Z,14.07
2023-02-19T10:24:58.202Z,13.23
2023-02-19T10:27:35.510Z,13.77
2023-02-19T10:30:05.402Z,13.48
2023-02-19T10:32:35.170Z,14.77
2023-02-19T10:35:24.358Z,13.98
2023-02-19T10:37:55.037Z,14.60
2023-02-19T10:40:28.474Z,14.60
2023-02-19T10:43:07.102Z,14.02
2023-02-19T10:45:55.005Z,12.85
2023-02-19T10:48:32.594Z,14.23
2023-02-19T10:51:08.324Z,14.93
2023-02-19T10:53:49.811Z,13.60
2023-02-19T10:56:35.417Z,14.27
2023-02-19T10:59:26.437Z,13.82
2023-02-19T11:02:17.113Z,13.25
2023-02-19T11:05:18.145Z,13.77
2023-02-19T11:07:58.485Z,14.60
2023-02-19T11:10:33.005Z,14.30
2023-02-19T11:13:05.466Z,14.15
2023-02-19T11:15:37.468Z,14.30
2023-02-19T11:18:26.720Z,15.43
2023-02-19T11:21:00.154Z,13.82
2023-02-19T11:23:40.763Z,14.75
2023-02-19T11:26:23.558Z,15.40
2023-02-19T11:29:04.256Z,14.68
2023-02-19T11:31:37.790Z,15.75
2023-02-19T11:34:37.003Z,15.43
2023-02-19T11:37:16.755Z,15.85
2023-02-19T11:39:50.372Z,15.55
2023-02-19T11:42:44.966Z,15.38
2023-02-19T11:45:42.556Z,16.20
2023-02-19T11:51:39.922Z,15.98
2023-02-19T11:54:50.952Z,17.40
2023-02-19T11:57:42.690Z,16.95
2023-02-19T12:00:32.693Z,17.40
2023-02-19T12:03:36.659Z,15.45
2023-02-19T12:06:39.786Z,16.95
2023-02-19T12:09:35.374Z,17.33
2023-02-19T12:12:32.889Z,17.50
2023-02-19T12:15:37.357Z,16.90
2023-02-19T12:18:43.089Z,17.67
2023-02-19T12:21:48.873Z,17.13
2023-02-19T12:24:48.914Z,18.42
2023-02-19T12:27:56.957Z,20.30
2023-02-19T12:30:54.348Z,18.90
2023-02-19T12:33:58.777Z,18.42
2023-02-19T12:36:53.146Z,17.38
2023-02-19T12:39:50.313Z,18.95
2023-02-19T12:42:51.187Z,18.25
2023-02-19T12:46:00.592Z,18.55
2023-02-19T12:49:09.122Z,18.65
2023-02-19T12:51:52.186Z,19.25
2023-02-19T12:54:40.376Z,19.52
2023-02-19T12:57:27.119Z,19.02
2023-02-19T13:00:09.111Z,28.13
2023-02-19T13:02:55.887Z,29.58
2023-02-19T13:06:05.299Z,26.77
2023-02-19T13:09:07.481Z,27.05
2023-02-19T13:12:01.021Z,24.17
2023-02-19T13:14:45.709Z,25.23
2023-02-19T13:17:34.188Z,25.95
2023-02-19T13:20:43.581Z,23.30
2023-02-19T13:23:50.170Z,23.13
2023-02-19T13:26:59.137Z,22.95
2023-02-19T13:29:58.549Z,22.52
2023-02-19T13:33:00.319Z,23.73
2023-02-19T13:36:09.959Z,23.77
2023-02-19T13:38:46.091Z,24.63
2023-02-19T13:41:29.691Z,24.00
2023-02-19T13:44:06.463Z,23.38
2023-02-19T13:46:42.661Z,24.13
2023-02-19T13:49:43.628Z,22.70
2023-02-19T13:52:37.836Z,24.23
2023-02-19T13:55:52.725Z,24.08
2023-02-19T13:58:42.141Z,25.48
2023-02-19T14:01:13.255Z,26.05
2023-02-19T14:03:56.878Z,25.73
2023-02-19T14:06:28.529Z,26.23
2023-02-19T14:09:05.523Z,26.13
2023-02-19T14:12:04.603Z,27.02
2023-02-19T14:14:41.003Z,25.35
2023-02-19T14:17:39.316Z,26.25
2023-02-19T14:20:48.275Z,27.95
2023-02-19T14:23:25.834Z,26.88
2023-02-19T14:26:01.887Z,21.52
2023-02-19T14:28:46.480Z,45.92
2023-02-19T14:31:40.420Z,54.45
2023-02-19T14:34:28.704Z,46.20
2023-02-19T14:37:02.050Z,42.75
2023-02-19T14:39:39.527Z,37.40
2023-02-19T14:42:19.552Z,35.40
2023-02-19T14:44:54.102Z,37.17
2023-02-19T14:47:27.357Z,36.75
2023-02-19T14:50:04.711Z,33.95
2023-02-19T14:52:48.356Z,33.78
2023-02-19T14:55:31.394Z,33.35
2023-02-19T14:58:06.762Z,32.20
2023-02-19T15:00:40.943Z,31.63
2023-02-19T15:03:28.496Z,33.08
2023-02-19T15:06:14.932Z,31.70
2023-02-19T15:08:54.842Z,29.90
2023-02-19T15:11:26.529Z,30.50
2023-02-19T15:14:02.632Z,29.75
2023-02-19T15:16:34.800Z,30.35
2023-02-19T15:19:09.948Z,28.23
2023-02-19T15:21:45.496Z,27.40
2023-02-19T15:24:17.829Z,25.27
2023-02-19T15:26:52.798Z,20.00
2023-02-19T15:29:27.181Z,17.50
2023-02-19T15:32:00.079Z,17.85
2023-02-19T15:34:31.837Z,17.10
2023-02-19T15:37:05.656Z,18.52
2023-02-19T15:39:48.869Z,20.48
2023-02-19T15:42:23.479Z,16.73
2023-02-19T15:45:08.313Z,15.68
2023-02-19T15:47:50.862Z,14.93
2023-02-19T15:50:27.897Z,12.90
2023-02-19T15:53:31.296Z,13.10
2023-02-19T15:56:14.369Z,12.20
2023-02-19T15:59:14.602Z,11.57
2023-02-19T16:01:44.594Z,13.15
2023-02-19T16:04:19.993Z,13.68
2023-02-19T16:06:57.871Z,10.52
2023-02-19T16:09:40.347Z,12.25
2023-02-19T16:12:29.970Z,13.02
2023-02-19T16:14:59.599Z,13.95
2023-02-19T16:17:29.993Z,13.23
2023-02-19T16:20:04.305Z,13.55
2023-02-19T16:22:43.829Z,12.32
2023-02-19T16:25:26.839Z,12.18
2023-02-19T16:27:57.101Z,12.35
2023-02-19T16:30:33.073Z,11.60
2023-02-19T16:33:23.308Z,10.80
2023-02-19T16:35:54.081Z,10.05
2023-02-19T16:38:24.197Z,11.13
2023-02-19T16:41:10.940Z,10.40
2023-02-19T16:43:44.941Z,10.93
2023-02-19T16:46:15.498Z,10.40
2023-02-19T16:48:45.222Z,11.10
2023-02-19T16:51:25.918Z,10.82
2023-02-19T16:53:55.710Z,10.68
2023-02-19T16:56:25.515Z,11.18
2023-02-19T16:58:55.226Z,10.55
2023-02-19T17:01:25.360Z,11.25
2023-02-19T17:04:00.552Z,11.32
2023-02-19T17:06:30.488Z,10.32
2023-02-19T17:09:00.683Z,10.30
2023-02-19T17:11:30.317Z,10.25
2023-02-19T17:14:00.040Z,10.57
2023-02-19T17:16:41.814Z,10.13
2023-02-19T17:19:22.096Z,10.73
2023-02-19T17:21:51.858Z,9.95
2023-02-19T17:24:22.268Z,10.23
2023-02-19T17:26:52.043Z,11.10
2023-02-19T17:29:21.845Z,10.45
2023-02-19T17:31:51.734Z,10.68
2023-02-19T17:34:21.443Z,10.88
2023-02-19T17:36:51.187Z,9.70
2023-02-19T17:39:21.087Z,10.80
2023-02-19T17:41:51.559Z,10.52
2023-02-19T17:44:21.171Z,10.18
2023-02-19T17:46:51.160Z,10.38
2023-02-19T17:49:21.410Z,9.77
2023-02-19T17:51:51.062Z,10.40
2023-02-19T17:54:20.613Z,9.70
2023-02-19T17:56:50.281Z,10.80
2023-02-19T18:01:36.940Z,10.02
2023-02-19T18:06:26.331Z,10.50
2023-02-19T18:08:56.246Z,10.25
2023-02-19T18:11:25.926Z,10.27
2023-02-19T18:13:55.682Z,10.38
2023-02-19T18:18:47.044Z,11.95
2023-02-19T19:05:33.060Z,9.70
2023-02-19T19:08:03.476Z,10.57
2023-02-19T19:10:33.430Z,9.70
